sensor_id;sensor_type;location;lat;lon;timestamp;pressure;altitude;pressure_sealevel;temperature;humidity
63665;BME280;49820;33.966;73.390;2023-04-20T03:02:04;78306.91;;;7.05;100.00
63665;BME280;49820;33.966;73.390;2023-04-20T03:09:37;78288.81;;;7.13;100.00
63665;BME280;49820;33.966;73.390;2023-04-20T03:12:41;78327.88;;;7.52;100.00
63665;BME280;49820;33.966;73.390;2023-04-20T03:16:58;78339.94;;;7.78;100.00
63665;BME280;49820;33.966;73.390;2023-04-20T03:20:02;78327.47;;;8.01;100.00
63665;BME280;49820;33.966;73.390;2023-04-20T03:23:06;78338.88;;;8.24;100.00
63665;BME280;49820;33.966;73.390;2023-04-20T03:34:04;78335.50;;;7.97;100.00
63665;BME280;49820;33.966;73.390;2023-04-20T03:40:17;78378.31;;;8.47;100.00
63665;BME280;49820;33.966;73.390;2023-04-20T03:43:21;78364.38;;;8.73;100.00
63665;BME280;49820;33.966;73.390;2023-04-20T03:46:08;78355.09;;;8.72;100.00
63665;BME280;49820;33.966;73.390;2023-04-20T03:48:55;78362.13;;;8.84;100.00
63665;BME280;49820;33.966;73.390;2023-04-20T03:51:58;78352.47;;;9.24;100.00
63665;BME280;49820;33.966;73.390;2023-04-20T03:54:27;78334.81;;;9.35;100.00
63665;BME280;49820;33.966;73.390;2023-04-20T03:57:32;78362.56;;;9.44;100.00
63665;BME280;49820;33.966;73.390;2023-04-20T04:00:19;78380.63;;;9.41;100.00
63665;BME280;49820;33.966;73.390;2023-04-20T04:03:23;78361.00;;;9.28;100.00
63665;BME280;49820;33.966;73.390;2023-04-20T04:05:52;78370.91;;;9.32;100.00
63665;BME280;49820;33.966;73.390;2023-04-20T04:08:56;78344.28;;;9.05;100.00
63665;BME280;49820;33.966;73.390;2023-04-20T04:11:25;78379.44;;;9.36;100.00
63665;BME280;49820;33.966;73.390;2023-04-20T04:14:33;78366.94;;;9.31;100.00
63665;BME280;49820;33.966;73.390;2023-04-20T04:17:04;78390.59;;;9.43;100.00
63665;BME280;49820;33.966;73.390;2023-04-20T04:20:10;78396.50;;;9.47;100.00
63665;BME280;49820;33.966;73.390;2023-04-20T04:23:14;78385.75;;;9.49;100.00
63665;BME280;49820;33.966;73.390;2023-04-20T04:25:57;78375.53;;;9.58;100.00
63665;BME280;49820;33.966;73.390;2023-04-20T04:28:44;78374.13;;;9.61;100.00
63665;BME280;49820;33.966;73.390;2023-04-20T04:31:47;78381.59;;;9.56;100.00
63665;BME280;49820;33.966;73.390;2023-04-20T04:34:35;78402.66;;;10.14;100.00
63665;BME280;49820;33.966;73.390;2023-04-20T04:37:40;78397.28;;;10.16;100.00
63665;BME280;49820;33.966;73.390;2023-04-20T04:40:10;78388.34;;;10.94;100.00
63665;BME280;49820;33.966;73.390;2023-04-20T04:43:15;78406.56;;;11.31;100.00
63665;BME280;49820;33.966;73.390;2023-04-20T04:46:19;78406.13;;;11.02;100.00
63665;BME280;49820;33.966;73.390;2023-04-20T04:49:23;78419.84;;;12.35;100.00
63665;BME280;49820;33.966;73.390;2023-04-20T04:52:28;78410.88;;;12.43;100.00
63665;BME280;49820;33.966;73.390;2023-04-20T04:55:33;78410.00;;;12.86;100.00
63665;BME280;49820;33.966;73.390;2023-04-20T04:58:02;78402.19;;;12.61;100.00
63665;BME280;49820;33.966;73.390;2023-04-20T05:01:06;78420.81;;;12.46;100.00
63665;BME280;49820;33.966;73.390;2023-04-20T05:04:09;78403.09;;;11.97;100.00
63665;BME280;49820;33.966;73.390;2023-04-20T05:07:13;78402.91;;;12.22;100.00
63665;BME280;49820;33.966;73.390;2023-04-20T05:10:17;78418.81;;;12.26;100.00
63665;BME280;49820;33.966;73.390;2023-04-20T05:13:21;78414.28;;;12.41;100.00
63665;BME280;49820;33.966;73.390;2023-04-20T05:16:25;78413.50;;;12.45;100.00
63665;BME280;49820;33.966;73.390;2023-04-20T05:19:29;78423.69;;;12.96;100.00
63665;BME280;49820;33.966;73.390;2023-04-20T05:21:57;78409.72;;;12.38;100.00
63665;BME280;49820;33.966;73.390;2023-04-20T05:25:02;78415.53;;;12.63;100.00
63665;BME280;49820;33.966;73.390;2023-04-20T05:28:06;78425.56;;;13.38;100.00
63665;BME280;49820;33.966;73.390;2023-04-20T05:30:51;78307.31;;;12.89;100.00
63665;BME280;49820;33.966;73.390;2023-04-20T05:33:57;78410.69;;;13.57;100.00
63665;BME280;49820;33.966;73.390;2023-04-20T05:36:27;78441.59;;;14.08;100.00
63665;BME280;49820;33.966;73.390;2023-04-20T05:39:31;78424.22;;;14.22;100.00
63665;BME280;49820;33.966;73.390;2023-04-20T05:42:00;78430.19;;;14.41;100.00
63665;BME280;49820;33.966;73.390;2023-04-20T05:45:04;78423.16;;;14.97;100.00
63665;BME280;49820;33.966;73.390;2023-04-20T05:47:33;78432.59;;;16.02;100.00
63665;BME280;49820;33.966;73.390;2023-04-20T05:50:37;78422.03;;;14.27;100.00
63665;BME280;49820;33.966;73.390;2023-04-20T05:53:41;78422.75;;;14.75;100.00
63665;BME280;49820;33.966;73.390;2023-04-20T05:56:10;78397.94;;;13.58;100.00
63665;BME280;49820;33.966;73.390;2023-04-20T05:59:15;78437.44;;;13.24;100.00
63665;BME280;49820;33.966;73.390;2023-04-20T06:02:19;78440.66;;;12.72;100.00
63665;BME280;49820;33.966;73.390;2023-04-20T06:05:23;78434.84;;;12.66;100.00
63665;BME280;49820;33.966;73.390;2023-04-20T06:08:26;78431.78;;;12.19;100.00
63665;BME280;49820;33.966;73.390;2023-04-20T06:11:30;78431.88;;;14.97;100.00
63665;BME280;49820;33.966;73.390;2023-04-20T06:13:59;78439.22;;;14.67;100.00
63665;BME280;49820;33.966;73.390;2023-04-20T06:17:03;78424.28;;;13.53;100.00
63665;BME280;49820;33.966;73.390;2023-04-20T06:20:10;78446.69;;;13.81;100.00
63665;BME280;49820;33.966;73.390;2023-04-20T06:23:13;78448.75;;;13.08;100.00
63665;BME280;49820;33.966;73.390;2023-04-20T06:26:01;78435.31;;;12.72;100.00
63665;BME280;49820;33.966;73.390;2023-04-20T06:28:48;78438.69;;;13.79;100.00
63665;BME280;49820;33.966;73.390;2023-04-20T06:31:54;78446.56;;;13.31;100.00
63665;BME280;49820;33.966;73.390;2023-04-20T06:34:23;78442.09;;;13.25;100.00
63665;BME280;49820;33.966;73.390;2023-04-20T06:37:27;78441.03;;;12.81;100.00
63665;BME280;49820;33.966;73.390;2023-04-20T06:40:31;78430.38;;;12.60;100.00
63665;BME280;49820;33.966;73.390;2023-04-20T06:43:34;78442.41;;;12.80;100.00
63665;BME280;49820;33.966;73.390;2023-04-20T06:46:03;78424.94;;;12.81;100.00
63665;BME280;49820;33.966;73.390;2023-04-20T06:49:07;78406.91;;;12.79;100.00
63665;BME280;49820;33.966;73.390;2023-04-20T06:51:37;78447.03;;;13.38;100.00
63665;BME280;49820;33.966;73.390;2023-04-20T06:54:41;78429.06;;;13.51;100.00
63665;BME280;49820;33.966;73.390;2023-04-20T06:57:10;78432.66;;;13.08;100.00
63665;BME280;49820;33.966;73.390;2023-04-20T07:00:14;78423.13;;;12.75;100.00
63665;BME280;49820;33.966;73.390;2023-04-20T07:03:18;78433.53;;;13.02;100.00
63665;BME280;49820;33.966;73.390;2023-04-20T07:06:22;78445.50;;;13.59;100.00
63665;BME280;49820;33.966;73.390;2023-04-20T07:08:52;78424.44;;;13.49;100.00
63665;BME280;49820;33.966;73.390;2023-04-20T07:11:23;78424.88;;;13.89;100.00
63665;BME280;49820;33.966;73.390;2023-04-20T07:14:09;78436.75;;;13.78;100.00
63665;BME280;49820;33.966;73.390;2023-04-20T07:17:13;78416.41;;;13.66;100.00
63665;BME280;49820;33.966;73.390;2023-04-20T07:20:17;78436.94;;;14.57;100.00
63665;BME280;49820;33.966;73.390;2023-04-20T07:23:21;78428.94;;;17.62;100.00
63665;BME280;49820;33.966;73.390;2023-04-20T07:26:25;78434.44;;;16.06;81.74
63665;BME280;49820;33.966;73.390;2023-04-20T07:29:28;78425.50;;;16.39;99.52
63665;BME280;49820;33.966;73.390;2023-04-20T07:32:33;78412.88;;;18.61;69.84
63665;BME280;49820;33.966;73.390;2023-04-20T07:35:38;78431.31;;;16.01;77.61
63665;BME280;49820;33.966;73.390;2023-04-20T07:38:42;78421.28;;;17.66;74.65
63665;BME280;49820;33.966;73.390;2023-04-20T07:41:46;78412.88;;;17.98;65.54
63665;BME280;49820;33.966;73.390;2023-04-20T07:44:15;78415.66;;;17.70;99.53
63665;BME280;49820;33.966;73.390;2023-04-20T07:47:19;78403.94;;;17.08;100.00
63665;BME280;49820;33.966;73.390;2023-04-20T07:50:23;78420.06;;;16.12;93.74
63665;BME280;49820;33.966;73.390;2023-04-20T07:53:28;78426.41;;;18.61;76.33
63665;BME280;49820;33.966;73.390;2023-04-20T07:56:32;78412.69;;;17.49;63.86
63665;BME280;49820;33.966;73.390;2023-04-20T07:59:36;78427.88;;;17.02;93.10
63665;BME280;49820;33.966;73.390;2023-04-20T08:02:23;78380.47;;;15.49;77.25
63665;BME280;49820;33.966;73.390;2023-04-20T08:05:11;78403.75;;;16.85;72.26
63665;BME280;49820;33.966;73.390;2023-04-20T08:07:41;78401.34;;;17.06;66.33
63665;BME280;49820;33.966;73.390;2023-04-20T08:10:26;78407.19;;;16.41;63.84
63665;BME280;49820;33.966;73.390;2023-04-20T08:13:30;78405.00;;;14.97;73.01
63665;BME280;49820;33.966;73.390;2023-04-20T08:16:18;78399.91;;;15.06;82.15
63665;BME280;49820;33.966;73.390;2023-04-20T08:19:22;78370.94;;;14.92;76.79
63665;BME280;49820;33.966;73.390;2023-04-20T08:22:26;78391.47;;;17.28;68.47
63665;BME280;49820;33.966;73.390;2023-04-20T08:25:32;78370.22;;;17.35;73.75
63665;BME280;49820;33.966;73.390;2023-04-20T08:28:01;78376.19;;;17.10;70.06
63665;BME280;49820;33.966;73.390;2023-04-20T08:31:05;78377.28;;;17.15;73.29
63665;BME280;49820;33.966;73.390;2023-04-20T08:34:10;78388.16;;;19.52;72.86
63665;BME280;49820;33.966;73.390;2023-04-20T08:37:15;78371.03;;;18.83;65.10
63665;BME280;49820;33.966;73.390;2023-04-20T08:40:19;78386.84;;;17.27;68.55
63665;BME280;49820;33.966;73.390;2023-04-20T08:43:22;78373.03;;;18.72;63.29
63665;BME280;49820;33.966;73.390;2023-04-20T08:46:26;78371.00;;;18.60;62.46
63665;BME280;49820;33.966;73.390;2023-04-20T08:49:29;78372.47;;;19.41;73.69
63665;BME280;49820;33.966;73.390;2023-04-20T08:52:34;78373.63;;;17.73;64.72
63665;BME280;49820;33.966;73.390;2023-04-20T08:55:20;78365.63;;;18.22;68.38
63665;BME280;49820;33.966;73.390;2023-04-20T08:57:49;78355.06;;;19.02;73.14
63665;BME280;49820;33.966;73.390;2023-04-20T09:00:18;78359.91;;;18.15;69.94
63665;BME280;49820;33.966;73.390;2023-04-20T09:03:05;78362.38;;;17.16;69.10
63665;BME280;49820;33.966;73.390;2023-04-20T09:06:16;78370.09;;;19.12;67.43
63665;BME280;49820;33.966;73.390;2023-04-20T09:09:23;78337.00;;;17.64;67.15
63665;BME280;49820;33.966;73.390;2023-04-20T09:12:13;78366.06;;;17.10;67.66
63665;BME280;49820;33.966;73.390;2023-04-20T09:15:00;78361.22;;;16.58;70.83
63665;BME280;49820;33.966;73.390;2023-04-20T09:18:13;78324.94;;;16.70;68.25
63665;BME280;49820;33.966;73.390;2023-04-20T09:21:17;78354.19;;;18.70;63.41
63665;BME280;49820;33.966;73.390;2023-04-20T09:24:00;78365.22;;;18.79;60.52
63665;BME280;49820;33.966;73.390;2023-04-20T09:26:47;78360.22;;;17.71;62.07
63665;BME280;49820;33.966;73.390;2023-04-20T09:30:01;78343.06;;;19.23;62.24
63665;BME280;49820;33.966;73.390;2023-04-20T09:33:09;78350.50;;;18.76;79.06
63665;BME280;49820;33.966;73.390;2023-04-20T09:36:14;78335.31;;;19.17;58.25
63665;BME280;49820;33.966;73.390;2023-04-20T09:39:22;78312.38;;;19.73;53.09
63665;BME280;49820;33.966;73.390;2023-04-20T09:42:27;78334.31;;;19.69;66.73
63665;BME280;49820;33.966;73.390;2023-04-20T09:44:58;78303.03;;;20.48;54.20
63665;BME280;49820;33.966;73.390;2023-04-20T09:48:07;78310.28;;;17.58;59.26
63665;BME280;49820;33.966;73.390;2023-04-20T09:51:11;78315.78;;;17.93;60.13
63665;BME280;49820;33.966;73.390;2023-04-20T09:54:15;78302.53;;;19.10;57.10
63665;BME280;49820;33.966;73.390;2023-04-20T09:57:18;78320.88;;;18.00;60.68
63665;BME280;49820;33.966;73.390;2023-04-20T09:59:50;78314.06;;;17.50;70.84
63665;BME280;49820;33.966;73.390;2023-04-20T10:02:56;78299.63;;;16.63;68.85
63665;BME280;49820;33.966;73.390;2023-04-20T10:05:34;78307.31;;;17.11;65.05
63665;BME280;49820;33.966;73.390;2023-04-20T10:08:39;78303.38;;;18.83;62.36
63665;BME280;49820;33.966;73.390;2023-04-20T10:11:09;78268.78;;;17.38;69.71
63665;BME280;49820;33.966;73.390;2023-04-20T10:14:00;78293.06;;;16.05;65.96
63665;BME280;49820;33.966;73.390;2023-04-20T10:17:06;78298.78;;;16.12;65.66
63665;BME280;49820;33.966;73.390;2023-04-20T10:20:30;78293.22;;;15.44;75.59
63665;BME280;49820;33.966;73.390;2023-04-20T10:23:34;78274.34;;;18.22;63.23
63665;BME280;49820;33.966;73.390;2023-04-20T10:26:03;78282.16;;;18.16;66.19
63665;BME280;49820;33.966;73.390;2023-04-20T10:28:49;78271.59;;;17.10;61.26
63665;BME280;49820;33.966;73.390;2023-04-20T10:31:54;78175.97;;;15.47;67.19
63665;BME280;49820;33.966;73.390;2023-04-20T10:35:09;78271.94;;;17.42;66.89
63665;BME280;49820;33.966;73.390;2023-04-20T10:38:12;78247.06;;;16.22;64.17
63665;BME280;49820;33.966;73.390;2023-04-20T10:41:16;78246.63;;;17.35;66.75
63665;BME280;49820;33.966;73.390;2023-04-20T10:44:20;78243.72;;;16.49;72.57
63665;BME280;49820;33.966;73.390;2023-04-20T10:47:29;78271.50;;;16.05;75.40
63665;BME280;49820;33.966;73.390;2023-04-20T10:50:33;78248.31;;;15.83;65.51
63665;BME280;49820;33.966;73.390;2023-04-20T10:53:36;78267.13;;;15.70;73.43
63665;BME280;49820;33.966;73.390;2023-04-20T10:56:06;78257.31;;;15.35;69.85
63665;BME280;49820;33.966;73.390;2023-04-20T10:59:30;78244.22;;;14.54;72.97
63665;BME280;49820;33.966;73.390;2023-04-20T11:02:34;78265.84;;;14.35;77.79
63665;BME280;49820;33.966;73.390;2023-04-20T11:05:11;78252.50;;;14.33;76.66
63665;BME280;49820;33.966;73.390;2023-04-20T11:07:59;78273.09;;;14.38;71.83
63665;BME280;49820;33.966;73.390;2023-04-20T11:10:48;78239.00;;;13.55;78.80
63665;BME280;49820;33.966;73.390;2023-04-20T11:14:12;78286.97;;;13.80;79.60
63665;BME280;49820;33.966;73.390;2023-04-20T11:17:16;78249.19;;;13.69;84.81
63665;BME280;49820;33.966;73.390;2023-04-20T11:20:20;78270.53;;;13.71;85.87
63665;BME280;49820;33.966;73.390;2023-04-20T11:22:55;78208.97;;;13.19;79.94
63665;BME280;49820;33.966;73.390;2023-04-20T11:25:55;78278.69;;;13.69;86.89
63665;BME280;49820;33.966;73.390;2023-04-20T11:28:59;78259.50;;;13.46;92.10
63665;BME280;49820;33.966;73.390;2023-04-20T11:32:05;78286.50;;;13.42;82.48
63665;BME280;49820;33.966;73.390;2023-04-20T11:34:59;78277.75;;;13.27;79.88
63665;BME280;49820;33.966;73.390;2023-04-20T11:37:47;78291.06;;;13.29;83.47
63665;BME280;49820;33.966;73.390;2023-04-20T11:40:35;78283.44;;;13.19;87.34
63665;BME280;49820;33.966;73.390;2023-04-20T11:43:38;78284.31;;;13.13;89.98
63665;BME280;49820;33.966;73.390;2023-04-20T11:46:18;78283.88;;;13.73;83.38
63665;BME280;49820;33.966;73.390;2023-04-20T11:48:48;78248.97;;;13.25;95.45
63665;BME280;49820;33.966;73.390;2023-04-20T11:51:16;78278.38;;;13.27;92.48
63665;BME280;49820;33.966;73.390;2023-04-20T11:54:03;78286.59;;;13.23;89.47
63665;BME280;49820;33.966;73.390;2023-04-20T11:57:07;78269.50;;;13.14;91.59
63665;BME280;49820;33.966;73.390;2023-04-20T11:59:36;78305.69;;;13.32;83.50
63665;BME280;49820;33.966;73.390;2023-04-20T12:02:40;78279.34;;;12.68;79.51
63665;BME280;49820;33.966;73.390;2023-04-20T12:05:09;78252.59;;;12.49;82.14
63665;BME280;49820;33.966;73.390;2023-04-20T12:08:14;78292.19;;;12.82;82.42
63665;BME280;49820;33.966;73.390;2023-04-20T12:11:19;78305.28;;;12.90;85.89
63665;BME280;49820;33.966;73.390;2023-04-20T12:14:23;78282.44;;;12.74;89.32
63665;BME280;49820;33.966;73.390;2023-04-20T12:17:28;78284.53;;;12.55;89.13
63665;BME280;49820;33.966;73.390;2023-04-20T12:20:32;78287.34;;;12.51;82.46
63665;BME280;49820;33.966;73.390;2023-04-20T12:23:01;78281.22;;;12.36;90.08
63665;BME280;49820;33.966;73.390;2023-04-20T12:25:47;78214.66;;;11.69;95.50
63665;BME280;49820;33.966;73.390;2023-04-20T12:28:16;78270.59;;;12.15;84.66
63665;BME280;49820;33.966;73.390;2023-04-20T12:31:06;78300.47;;;12.40;94.69
63665;BME280;49820;33.966;73.390;2023-04-20T12:34:10;78302.44;;;12.23;87.96
63665;BME280;49820;33.966;73.390;2023-04-20T12:36:39;78285.06;;;12.22;100.00
63665;BME280;49820;33.966;73.390;2023-04-20T12:39:43;78289.69;;;11.86;100.00
63665;BME280;49820;33.966;73.390;2023-04-20T12:42:47;78314.22;;;11.93;100.00
63665;BME280;49820;33.966;73.390;2023-04-20T12:45:51;78329.84;;;11.86;100.00
63665;BME280;49820;33.966;73.390;2023-04-20T12:48:20;78319.56;;;11.53;100.00
63665;BME280;49820;33.966;73.390;2023-04-20T12:50:49;78335.28;;;11.63;100.00
63665;BME280;49820;33.966;73.390;2023-04-20T12:53:36;78340.72;;;11.40;100.00
63665;BME280;49820;33.966;73.390;2023-04-20T12:56:40;78338.00;;;11.22;100.00
63665;BME280;49820;33.966;73.390;2023-04-20T12:59:27;78336.94;;;11.13;100.00
63665;BME280;49820;33.966;73.390;2023-04-20T13:01:56;78331.34;;;10.79;100.00
63665;BME280;49820;33.966;73.390;2023-04-20T13:04:25;78321.72;;;10.45;100.00
63665;BME280;49820;33.966;73.390;2023-04-20T13:07:12;78347.84;;;10.63;100.00
63665;BME280;49820;33.966;73.390;2023-04-20T13:10:16;78351.44;;;10.55;100.00
63665;BME280;49820;33.966;73.390;2023-04-20T13:13:20;78348.00;;;10.36;100.00
63665;BME280;49820;33.966;73.390;2023-04-20T13:16:24;78349.94;;;10.15;100.00
63665;BME280;49820;33.966;73.390;2023-04-20T13:18:54;78306.03;;;9.64;100.00
63665;BME280;49820;33.966;73.390;2023-04-20T13:21:23;78348.13;;;9.84;100.00
63665;BME280;49820;33.966;73.390;2023-04-20T13:24:10;78335.44;;;9.62;100.00
63665;BME280;49820;33.966;73.390;2023-04-20T13:27:14;78344.84;;;9.59;100.00
63665;BME280;49820;33.966;73.390;2023-04-20T13:30:18;78307.38;;;9.15;100.00
63665;BME280;49820;33.966;73.390;2023-04-20T13:36:33;78310.75;;;8.87;100.00
63665;BME280;49820;33.966;73.390;2023-04-20T13:39:20;78302.06;;;8.62;100.00
63665;BME280;49820;33.966;73.390;2023-04-20T13:42:07;78327.16;;;8.71;100.00
63665;BME280;49820;33.966;73.390;2023-04-20T13:44:36;78302.59;;;8.41;100.00
63665;BME280;49820;33.966;73.390;2023-04-20T13:47:05;78308.16;;;8.29;100.00
63665;BME280;49820;33.966;73.390;2023-04-20T13:49:52;78322.75;;;8.32;100.00
63665;BME280;49820;33.966;73.390;2023-04-20T13:52:37;78332.16;;;8.27;100.00
63665;BME280;49820;33.966;73.390;2023-04-20T13:55:41;78311.34;;;7.78;100.00
63665;BME280;49820;33.966;73.390;2023-04-20T13:58:28;78339.63;;;7.92;100.00
63665;BME280;49820;33.966;73.390;2023-04-20T14:01:15;78324.81;;;7.70;100.00
63665;BME280;49820;33.966;73.390;2023-04-20T14:04:02;78346.50;;;7.81;100.00
63665;BME280;49820;33.966;73.390;2023-04-20T14:07:06;78334.38;;;7.57;100.00
63665;BME280;49820;33.966;73.390;2023-04-20T14:09:35;78329.28;;;7.47;100.00
63665;BME280;49820;33.966;73.390;2023-04-20T14:12:39;78322.06;;;7.43;100.00
63665;BME280;49820;33.966;73.390;2023-04-20T14:15:09;78328.03;;;7.44;100.00
63665;BME280;49820;33.966;73.390;2023-04-20T14:17:38;78326.38;;;7.28;100.00
63665;BME280;49820;33.966;73.390;2023-04-20T14:20:26;78358.09;;;7.36;100.00
63665;BME280;49820;33.966;73.390;2023-04-20T14:23:30;78359.66;;;7.23;100.00
63665;BME280;49820;33.966;73.390;2023-04-20T14:26:16;78323.19;;;6.86;100.00
63665;BME280;49820;33.966;73.390;2023-04-20T14:29:03;78348.09;;;7.04;100.00
63665;BME280;49820;33.966;73.390;2023-04-20T14:32:07;78345.50;;;7.00;100.00
63665;BME280;49820;33.966;73.390;2023-04-20T14:35:11;78316.91;;;6.67;100.00
63665;BME280;49820;33.966;73.390;2023-04-20T14:37:40;78345.31;;;6.75;100.00
63665;BME280;49820;33.966;73.390;2023-04-20T14:40:09;78351.38;;;6.69;100.00
63665;BME280;49820;33.966;73.390;2023-04-20T14:42:56;78358.06;;;6.66;100.00
63665;BME280;49820;33.966;73.390;2023-04-20T14:46:00;78370.13;;;6.61;100.00
63665;BME280;49820;33.966;73.390;2023-04-20T14:48:30;78312.56;;;6.15;100.00
63665;BME280;49820;33.966;73.390;2023-04-20T14:51:33;78357.25;;;6.39;100.00
63665;BME280;49820;33.966;73.390;2023-04-20T14:54:03;78361.09;;;6.46;100.00
63665;BME280;49820;33.966;73.390;2023-04-20T14:57:06;78333.28;;;6.43;100.00
63665;BME280;49820;33.966;73.390;2023-04-20T14:59:35;78318.66;;;6.44;100.00
63665;BME280;49820;33.966;73.390;2023-04-20T15:02:39;78316.13;;;6.38;100.00
63665;BME280;49820;33.966;73.390;2023-04-20T15:05:44;78364.16;;;6.61;100.00
63665;BME280;49820;33.966;73.390;2023-04-20T15:08:48;78357.81;;;6.43;100.00
63665;BME280;49820;33.966;73.390;2023-04-20T15:11:52;78354.66;;;6.33;100.00
63665;BME280;49820;33.966;73.390;2023-04-20T15:14:56;78346.00;;;6.36;100.00
63665;BME280;49820;33.966;73.390;2023-04-20T15:17:25;78365.78;;;6.43;100.00
63665;BME280;49820;33.966;73.390;2023-04-20T15:19:54;78338.31;;;6.20;100.00
63665;BME280;49820;33.966;73.390;2023-04-20T15:22:41;78325.28;;;6.08;100.00
63665;BME280;49820;33.966;73.390;2023-04-20T15:25:45;78342.56;;;6.05;100.00
63665;BME280;49820;33.966;73.390;2023-04-20T15:28:32;78332.72;;;5.97;100.00
63665;BME280;49820;33.966;73.390;2023-04-20T15:31:36;78355.84;;;6.03;100.00
63665;BME280;49820;33.966;73.390;2023-04-20T15:34:24;78364.56;;;5.95;100.00
63665;BME280;49820;33.966;73.390;2023-04-20T15:37:28;78392.44;;;5.92;100.00
63665;BME280;49820;33.966;73.390;2023-04-20T15:39:57;78394.56;;;5.84;100.00
63665;BME280;49820;33.966;73.390;2023-04-20T15:42:45;78390.38;;;5.99;100.00
63665;BME280;49820;33.966;73.390;2023-04-20T15:45:33;78394.38;;;5.98;100.00
63665;BME280;49820;33.966;73.390;2023-04-20T15:48:37;78370.66;;;5.86;100.00
63665;BME280;49820;33.966;73.390;2023-04-20T15:51:41;78364.69;;;5.89;100.00
63665;BME280;49820;33.966;73.390;2023-04-20T15:54:11;78363.34;;;5.88;100.00
63665;BME280;49820;33.966;73.390;2023-04-20T15:56:40;78351.53;;;5.81;100.00
63665;BME280;49820;33.966;73.390;2023-04-20T15:59:30;78332.06;;;5.52;100.00
63665;BME280;49820;33.966;73.390;2023-04-20T16:02:35;78336.69;;;5.53;100.00
63665;BME280;49820;33.966;73.390;2023-04-20T16:05:06;78341.41;;;5.49;100.00
63665;BME280;49820;33.966;73.390;2023-04-20T16:08:11;78345.44;;;5.44;100.00
63665;BME280;49820;33.966;73.390;2023-04-20T16:11:16;78365.81;;;5.55;100.00
63665;BME280;49820;33.966;73.390;2023-04-20T16:14:20;78377.38;;;5.33;100.00
63665;BME280;49820;33.966;73.390;2023-04-20T16:17:07;78353.16;;;5.13;100.00
63665;BME280;49820;33.966;73.390;2023-04-20T16:19:54;78333.63;;;4.87;100.00
63665;BME280;49820;33.966;73.390;2023-04-20T16:22:57;78358.63;;;4.98;100.00
63665;BME280;49820;33.966;73.390;2023-04-20T16:25:45;78365.22;;;5.02;100.00
63665;BME280;49820;33.966;73.390;2023-04-20T16:28:49;78372.56;;;4.95;100.00
63665;BME280;49820;33.966;73.390;2023-04-20T16:31:53;78368.66;;;4.90;100.00
63665;BME280;49820;33.966;73.390;2023-04-20T16:34:56;78376.63;;;4.88;100.00
63665;BME280;49820;33.966;73.390;2023-04-20T16:37:25;78347.09;;;4.69;100.00
63665;BME280;49820;33.966;73.390;2023-04-20T16:40:29;78356.38;;;4.68;100.00
63665;BME280;49820;33.966;73.390;2023-04-20T16:43:33;78366.28;;;4.68;100.00
63665;BME280;49820;33.966;73.390;2023-04-20T16:46:02;78365.06;;;4.58;100.00
63665;BME280;49820;33.966;73.390;2023-04-20T16:49:06;78380.94;;;4.58;100.00
63665;BME280;49820;33.966;73.390;2023-04-20T16:51:53;78358.00;;;4.39;100.00
63665;BME280;49820;33.966;73.390;2023-04-20T16:54:56;78363.94;;;4.43;100.00
63665;BME280;49820;33.966;73.390;2023-04-20T16:57:25;78340.31;;;4.27;100.00
63665;BME280;49820;33.966;73.390;2023-04-20T17:00:30;78369.84;;;4.46;100.00
63665;BME280;49820;33.966;73.390;2023-04-20T17:03:35;78358.72;;;4.37;100.00
63665;BME280;49820;33.966;73.390;2023-04-20T17:06:38;78350.94;;;4.21;100.00
63665;BME280;49820;33.966;73.390;2023-04-20T17:09:42;78340.41;;;4.15;100.00
63665;BME280;49820;33.966;73.390;2023-04-20T17:12:46;78319.41;;;4.05;100.00
63665;BME280;49820;33.966;73.390;2023-04-20T17:15:15;78298.34;;;3.97;100.00
63665;BME280;49820;33.966;73.390;2023-04-20T17:18:19;78320.66;;;4.10;100.00
63665;BME280;49820;33.966;73.390;2023-04-20T17:21:23;78308.91;;;3.97;100.00
63665;BME280;49820;33.966;73.390;2023-04-20T17:24:28;78305.69;;;3.88;100.00
63665;BME280;49820;33.966;73.390;2023-04-20T17:27:15;78337.94;;;3.99;100.00
63665;BME280;49820;33.966;73.390;2023-04-20T17:30:19;78340.66;;;3.93;100.00
63665;BME280;49820;33.966;73.390;2023-04-20T17:33:23;78379.38;;;4.20;100.00
63665;BME280;49820;33.966;73.390;2023-04-20T17:36:09;78370.81;;;4.14;100.00
63665;BME280;49820;33.966;73.390;2023-04-20T17:39:13;78379.81;;;4.39;100.00
63665;BME280;49820;33.966;73.390;2023-04-20T17:42:17;78377.09;;;4.47;100.00
63665;BME280;49820;33.966;73.390;2023-04-20T17:45:21;78367.94;;;4.38;100.00
63665;BME280;49820;33.966;73.390;2023-04-20T17:48:25;78398.81;;;4.58;100.00
63665;BME280;49820;33.966;73.390;2023-04-20T17:51:13;78432.06;;;5.02;100.00
63665;BME280;49820;33.966;73.390;2023-04-20T17:54:16;78422.78;;;5.54;100.00
63665;BME280;49820;33.966;73.390;2023-04-20T17:57:20;78408.97;;;5.48;100.00
63665;BME280;49820;33.966;73.390;2023-04-20T17:59:49;78411.13;;;5.35;100.00
63665;BME280;49820;33.966;73.390;2023-04-20T18:02:18;78407.31;;;5.22;100.00
63665;BME280;49820;33.966;73.390;2023-04-20T18:05:06;78394.97;;;5.04;100.00
63665;BME280;49820;33.966;73.390;2023-04-20T18:07:51;78404.72;;;5.18;100.00
63665;BME280;49820;33.966;73.390;2023-04-20T18:10:55;78402.69;;;5.20;100.00
63665;BME280;49820;33.966;73.390;2023-04-20T18:13:24;78395.59;;;5.07;100.00
63665;BME280;49820;33.966;73.390;2023-04-20T18:16:28;78381.25;;;4.89;100.00
63665;BME280;49820;33.966;73.390;2023-04-20T18:19:32;78397.81;;;4.88;100.00
63665;BME280;49820;33.966;73.390;2023-04-20T18:22:19;78374.41;;;4.51;100.00
63665;BME280;49820;33.966;73.390;2023-04-20T18:25:23;78406.88;;;4.46;100.00